This is the latest recevied weather packets stored in our database for station/object F4CYQ-10. If no packets are shown the sender has not sent any weather packets the latest 10 day(s).
| Time | Temp. | Humidity | Pressure | Rain* | Wind** | Luminosity | Snow |
|---|---|---|---|---|---|---|---|
| 1777132258 | 18.89° C | 55% | 1021.2 hPa | - | - | - | - |
| 1777131357 | 20° C | 55% | 1021.2 hPa | - | - | - | - |
| 1777131288 | 20° C | 55% | 1021.2 hPa | - | - | - | - |
| 1777130387 | 20° C | 55% | 1021.2 hPa | - | - | - | - |
| 1777129486 | 20.56° C | 54% | 1021.2 hPa | - | - | - | - |
| 1777128584 | 21.11° C | 53% | 1021.2 hPa | - | - | - | - |
| 1777128551 | 20° C | 54% | 1021.3 hPa | - | - | - | - |
| 1777127650 | 20° C | 54% | 1021.4 hPa | - | - | - | - |
| 1777126749 | 19.44° C | 54% | 1021.6 hPa | - | - | - | - |
| 1777125847 | -5° C | 100% | 4.8 hPa | - | - | - | - |
| 1777125809 | 20° C | 54% | 1021.7 hPa | - | - | - | - |
| 1777124908 | 20° C | 54% | 1021.8 hPa | - | - | - | - |
| 1777124007 | -5° C | 100% | 4.8 hPa | - | - | - | - |
| 1777123106 | -5° C | 100% | 4.8 hPa | - | - | - | - |
| 1777122484 | 20° C | 54% | 1022 hPa | - | - | - | - |
| 1777121583 | 20° C | 55% | 1022 hPa | - | - | - | - |
| 1777121553 | 20.56° C | 55% | 1022 hPa | - | - | - | - |
| 1777120682 | 20.56° C | 55% | 1022 hPa | - | - | - | - |
| 1777120242 | 19.44° C | 55% | 1022.1 hPa | - | - | - | - |
| 1777119470 | 20.56° C | 55% | 1022.3 hPa | - | - | - | - |
| 1777119341 | 19.44° C | 55% | 1022.2 hPa | - | - | - | - |
| 1777118440 | 20.56° C | 55% | 1022.3 hPa | - | - | - | - |
| 1777117806 | 19.44° C | 55% | 1022.2 hPa | - | - | - | - |
| 1777116905 | 18.89° C | 54% | 1022.2 hPa | - | - | - | - |
| 1777116005 | 18.89° C | 55% | 1022.3 hPa | - | - | - | - |
* Rain since midnight (hover to see other rain measurements)
** Current wind speed in m/s (hover to see current wind gust speed)